Friday, April 29, 2016
10:06 UTC
  |  Log In   |  Register Free
Airport Search:

Lonesome Pine Airport
(KLNP)

Lonesome Pine Airport Diagram
No Airport Diagram Available

FAA data valid effective Mar 31 2016 - May 26 2016 (unless otherwise noted).

 
 
 
 
 
 
 
 
 
 
 
 
 
 
Current Aviation Weather for KLNP

Weather Summary


The most recent METAR observation for LNP was updated at: 12:55 UTC
METAR for KLNP is not available. Closest METAR is for KVJI
KLNP  (most recent observation was updatred at 29:09 UTC)
290935Z AUTO 00000KT 10SM CLR 13/06 A3006 RMK AO2

KVJI  (29.9 nm NW)   (most recent observation was updated at 29:09 UTC)
290935Z AUTO 31004KT 10SM CLR 17/10 A3004 RMK AO2 T01650104

KTRI  (31.3 nm NW)   (most recent observation was updated at 29:08 UTC)
290853Z 35003KT 10SM CLR 12/11 A3002 RMK AO2 SLP144 T01220111 53012

TAF for KLNP is not available.
KTRI  (31.3 nm NW)   (most recent observation was updatred at 29:05 UTC)
290524Z 2906/3006 VRB02KT P6SM SKC FM291000 00000KT 5SM BR SKC FM291200 VRB02KT P6SM SKC FM291600 26008KT P6SM SCT250 FM292300 VRB03KT P6SM SCT120 BKN250


GlobalAir.com is loading additional information.
 Current Weather at LNP
54.0 F° (12.0 C°)

North winds at 0.0 mph
Pressure:
30.05 in
Humidity:
72%
Wind:
North at 0.0 mph
Dew Point:
44.6 F° (7.0 C°)
Visibility:
10.00 mi
LNP NOAA Radar




Find All Airport Services Find A Hotel Find A Rental Car Find A Golf Course Find A Restaurant $100 Hamburger



Airport Weather Forecast for KLNP

Translated METAR for KLNP (0935 UTC)
METAR:
KLNP 290935Z AUTO 00000KT 10SM CLR 13/06 A3006 RMK AO2
Conditions at:
KLNP (Lonesome Pine, VA) observed 0935 UTC 29 April 2016
Temperature:
13°C (55.4°F)
Dewpoint:
6°C (42.8°F) [RH = 62.5]
Pressure:
30.06 inches Hg (1017.9 mb)
Winds:
from the N (000 degrees) at 0 mph (0 knots: 0 m/s)
Visibility:
10 mile(s)
Ceiling:
at least 12,000 feet AGL
Clouds:
Clear below 12,000 feet AGL
Remarks:
site is un-manned
site is automated and HAS a precipitation sensor

Translated TAF for KTRI (Tri-Cities Rgnl Tn/Va, TN) (0524 UTC)
TAF text:
KTRI 290524Z 2906/3006 VRB02KT P6SM SKC
Forecast period:
Friday Apr 29 2016 06:00 UTC - Saturday Apr 30 2016 06:00 UTC
Forecast type:
FROM: standard forecast or significant change
Winds:
variable wind direction at 2.3 mph (2 knots: 1 m/s)
Visibility:
6 or more mile(s) (9.7+ km)
Ceiling:
at least 12,000 feet AGL
Clouds:
Clear Skies
Weather:
no significant weather observed at this time
TAF text:
FM291000 00000KT 5SM BR SKC
Forecast period:
Friday Apr 29 2016 10:00 UTC - Friday Apr 29 2016 12:00 UTC
Forecast type:
FROM: standard forecast or significant change
Winds:
from the N (000 degrees) at 0 mph (0 knots: 0 m/s)
Visibility:
5 mile(s) (8 km)
Ceiling:
at least 12,000 feet AGL
Clouds:
Clear Skies
Weather:
Moderate Mist
TAF text:
FM291200 VRB02KT P6SM SKC
Forecast period:
Friday Apr 29 2016 12:00 UTC - Friday Apr 29 2016 16:00 UTC
Forecast type:
FROM: standard forecast or significant change
Winds:
variable wind direction at 2.3 mph (2 knots: 1 m/s)
Visibility:
6 or more mile(s) (9.7+ km)
Ceiling:
at least 12,000 feet AGL
Clouds:
Clear Skies
Weather:
no significant weather observed at this time
TAF text:
FM291600 26008KT P6SM SCT250
Forecast period:
Friday Apr 29 2016 16:00 UTC - Friday Apr 29 2016 23:00 UTC
Forecast type:
FROM: standard forecast or significant change
Winds:
from the W (260 degrees) at 9.2 mph (8 knots: 4.1 m/s)
Visibility:
6 or more mile(s) (9.7+ km)
Ceiling:
at least 12,000 feet AGL
Clouds:
Scattered Clouds at 25,000 feet AGL
Weather:
no significant weather observed at this time
TAF text:
FM292300 VRB03KT P6SM SCT120 BKN250
Forecast period:
Friday Apr 29 2016 23:00 UTC - Saturday Apr 30 2016 06:00 UTC
Forecast type:
FROM: standard forecast or significant change
Winds:
variable wind direction at 3.5 mph (3 knots: 1.5 m/s)
Visibility:
6 or more mile(s) (9.7+ km)
Ceiling:
25,000 feet AGL
Clouds:
Scattered Clouds at 12,000 feet AGL
Broken Cloud Cover at 25,000 feet AGL
Weather:
no significant weather observed at this time
FBO's on the Field
FBO Company Facility Photos Services Transportation Aviation Fuel Prices: Prices include tax
Catering Weather Repair Courtesy Rental Type 100LL JetA JetA+ MOGAS 8087
 
Lonesome Pine Airport

This FBO has not yet been rated
FS:Shell
Last Updated: Apr-26
Login to update fuel prices
SS:
Contact Lonesome Pine AirportMore FBO Information
 
Add another FBO Facility Photos Catering Weather Repair Courtesy Rental Type 100LL JetA JetA+ MOGAS 8087
Services Transportation Aviation Fuel Prices: Prices include tax


model-print
model-print
model-print
model-print